Time;durP1;ratioP1;P1;durP2;ratioP2;P2;SDS_P1;SDS_P2;PMS_P1;PMS_P2;Temp;Humidity;BMP_temperature;BMP_pressure;BME280_temperature;BME280_humidity;BME280_pressure;Samples;Min_cycle;Max_cycle;Signal;HPM_P1;HPM_P2
2023/09/16 00:00:48;;;;;;;12.07;9.30;;;13.70;87.10;;;;;;5114595;28;20181;-88
2023/09/16 00:03:14;;;;;;;12.17;9.77;;;13.70;87.00;;;;;;5114153;28;20214;-88
2023/09/16 00:05:39;;;;;;;8.50;7.67;;;13.60;87.10;;;;;;5112855;28;20652;-88
2023/09/16 00:08:06;;;;;;;8.53;7.80;;;13.50;87.10;;;;;;5112789;28;20182;-88
2023/09/16 00:10:32;;;;;;;9.77;7.57;;;13.60;87.10;;;;;;5114031;28;20177;-88
2023/09/16 00:12:58;;;;;;;8.40;7.60;;;13.50;87.10;;;;;;5112987;28;20729;-87
2023/09/16 00:15:23;;;;;;;11.47;8.57;;;13.60;87.00;;;;;;5112780;28;20170;-88
2023/09/16 00:17:55;;;;;;;8.93;8.20;;;13.60;87.00;;;;;;5112743;28;20169;-89
2023/09/16 00:20:21;;;;;;;9.03;8.07;;;13.60;87.00;;;;;;5112630;28;20232;-88
2023/09/16 00:22:47;;;;;;;10.17;8.77;;;13.60;87.00;;;;;;5112786;28;20642;-88
2023/09/16 00:25:14;;;;;;;9.60;8.80;;;13.50;86.90;;;;;;5114060;28;20273;-88
2023/09/16 00:27:39;;;;;;;9.70;8.90;;;13.50;87.00;;;;;;5112585;28;20598;-88
2023/09/16 00:30:05;;;;;;;9.00;8.07;;;13.40;87.10;;;;;;5112608;28;20178;-88
2023/09/16 00:32:32;;;;;;;10.83;9.60;;;13.40;87.20;;;;;;5112672;28;20224;-88
2023/09/16 00:34:58;;;;;;;9.90;8.90;;;13.40;87.20;;;;;;5113701;28;20190;-88
2023/09/16 00:37:23;;;;;;;10.70;9.57;;;13.40;87.30;;;;;;5112446;28;20174;-88
2023/09/16 00:39:50;;;;;;;10.73;9.33;;;13.40;87.40;;;;;;5113728;28;20205;-89
2023/09/16 00:42:16;;;;;;;10.13;9.00;;;13.30;87.40;;;;;;5113733;28;20243;-88
2023/09/16 00:44:42;;;;;;;11.60;9.70;;;13.30;87.60;;;;;;5112382;28;20220;-89
2023/09/16 00:47:08;;;;;;;10.27;9.17;;;13.30;87.70;;;;;;5113541;28;20170;-88
2023/09/16 00:49:34;;;;;;;9.60;8.77;;;13.20;87.80;;;;;;5113727;28;20178;-89
2023/09/16 00:52:00;;;;;;;12.73;9.63;;;13.20;88.00;;;;;;5113566;28;20194;-89
2023/09/16 00:54:26;;;;;;;10.10;9.13;;;13.20;88.00;;;;;;5112430;28;20553;-89
2023/09/16 00:56:54;;;;;;;10.03;9.03;;;13.20;88.10;;;;;;5112402;28;20617;-87
2023/09/16 00:59:22;;;;;;;10.37;9.37;;;13.20;88.20;;;;;;5112151;28;20232;-88
2023/09/16 01:01:50;;;;;;;11.70;9.30;;;13.20;88.20;;;;;;5112364;28;20170;-88
2023/09/16 01:04:16;;;;;;;10.40;9.00;;;13.10;88.20;;;;;;5113440;28;20255;-88
2023/09/16 01:06:43;;;;;;;9.27;8.37;;;13.20;88.40;;;;;;5113583;28;20169;-89
2023/09/16 01:09:10;;;;;;;9.97;8.97;;;13.10;88.40;;;;;;5113428;28;20171;-88
2023/09/16 01:11:37;;;;;;;9.80;8.80;;;13.00;88.50;;;;;;5113495;28;20166;-88
2023/09/16 01:14:04;;;;;;;9.23;8.37;;;13.00;88.50;;;;;;5113539;28;20197;-88
2023/09/16 01:16:37;;;;;;;14.73;8.87;;;13.00;88.70;;;;;;5113426;28;20198;-88
2023/09/16 01:19:20;;;;;;;10.10;9.10;;;13.00;88.80;;;;;;5113720;28;20193;-88
2023/09/16 01:21:48;;;;;;;16.23;9.20;;;13.00;88.80;;;;;;5117078;28;20155;-88
2023/09/16 01:24:18;;;;;;;9.83;8.80;;;13.00;88.90;;;;;;5116319;28;20335;-89
2023/09/16 01:26:45;;;;;;;9.80;8.70;;;12.90;88.90;;;;;;5115993;28;20173;-88
2023/09/16 01:29:11;;;;;;;9.50;8.60;;;12.90;89.00;;;;;;5116091;28;20219;-88
2023/09/16 01:31:38;;;;;;;10.70;8.40;;;12.90;89.10;;;;;;5117254;28;20196;-88
2023/09/16 01:34:14;;;;;;;9.07;8.27;;;12.90;89.10;;;;;;5117055;28;20631;-88
2023/09/16 01:36:41;;;;;;;10.87;9.10;;;12.80;89.20;;;;;;5115842;28;20162;-88
2023/09/16 01:39:08;;;;;;;17.07;15.33;;;12.80;89.30;;;;;;5117012;28;20657;-88
2023/09/16 01:41:36;;;;;;;17.07;15.87;;;12.90;89.30;;;;;;5116590;28;20536;-88
2023/09/16 01:44:02;;;;;;;15.53;13.47;;;12.90;89.40;;;;;;5115792;28;20217;-89
2023/09/16 01:46:28;;;;;;;10.57;9.30;;;12.80;89.50;;;;;;5116763;28;20253;-88
2023/09/16 01:48:53;;;;;;;9.73;8.73;;;12.90;89.60;;;;;;5115641;28;20732;-88
2023/09/16 01:51:19;;;;;;;11.23;10.30;;;12.90;89.70;;;;;;5116765;27;20649;-88
2023/09/16 01:53:45;;;;;;;16.07;14.60;;;12.90;89.80;;;;;;5116736;28;20222;-89
2023/09/16 01:56:10;;;;;;;16.70;15.40;;;12.90;89.80;;;;;;5115275;28;20296;-89
2023/09/16 01:58:36;;;;;;;10.40;8.77;;;12.90;89.90;;;;;;5116660;28;20181;-88
2023/09/16 02:01:08;;;;;;;9.77;8.87;;;13.00;89.90;;;;;;5116502;28;20174;-89
2023/09/16 02:03:33;;;;;;;15.40;14.00;;;12.90;89.90;;;;;;5115244;28;20190;-88
2023/09/16 02:05:59;;;;;;;16.70;15.50;;;12.90;89.90;;;;;;5116644;28;20249;-88
2023/09/16 02:08:25;;;;;;;17.97;16.47;;;12.80;89.90;;;;;;5115116;28;20657;-88
2023/09/16 02:10:50;;;;;;;10.03;9.07;;;12.80;89.90;;;;;;5115167;28;20182;-89
2023/09/16 02:13:16;;;;;;;10.30;9.27;;;12.80;90.00;;;;;;5115032;28;20556;-88
2023/09/16 02:15:42;;;;;;;16.87;15.53;;;12.80;90.00;;;;;;5116493;28;20306;-88
2023/09/16 02:18:08;;;;;;;16.07;14.70;;;12.80;90.00;;;;;;5116807;28;20213;-88
2023/09/16 02:20:34;;;;;;;18.93;16.77;;;12.70;90.10;;;;;;5114910;28;20225;-88
2023/09/16 02:23:02;;;;;;;15.00;8.37;;;12.70;90.10;;;;;;5116407;28;20177;-88
2023/09/16 02:25:27;;;;;;;8.97;7.97;;;12.70;90.10;;;;;;5116301;28;20166;-88
2023/09/16 02:27:53;;;;;;;9.43;8.63;;;12.70;90.20;;;;;;5116175;28;20163;-88
2023/09/16 02:30:18;;;;;;;8.43;7.73;;;12.80;90.20;;;;;;5114924;28;20291;-88
2023/09/16 02:32:44;;;;;;;8.67;7.87;;;12.80;90.20;;;;;;5114705;28;20174;-88
2023/09/16 02:35:09;;;;;;;17.30;9.30;;;12.80;90.10;;;;;;5115767;28;20277;-89
2023/09/16 02:37:35;;;;;;;9.73;8.90;;;12.80;90.20;;;;;;5114702;28;20212;-88
2023/09/16 02:40:02;;;;;;;9.30;8.43;;;12.90;90.20;;;;;;5115733;28;20276;-88
2023/09/16 02:42:28;;;;;;;9.33;8.37;;;12.90;90.20;;;;;;5115768;28;20274;-88
2023/09/16 02:44:53;;;;;;;11.57;9.20;;;12.90;90.30;;;;;;5115654;28;20190;-89
2023/09/16 02:47:20;;;;;;;10.13;9.13;;;13.00;90.20;;;;;;5115629;28;20166;-88
2023/09/16 02:49:45;;;;;;;10.07;9.03;;;12.90;90.20;;;;;;5115757;28;20174;-88
2023/09/16 02:52:11;;;;;;;10.83;9.73;;;13.00;90.20;;;;;;5114251;28;20231;-88
2023/09/16 02:54:37;;;;;;;15.97;8.80;;;12.90;90.20;;;;;;5114311;28;20198;-88
2023/09/16 02:57:02;;;;;;;12.23;9.40;;;12.90;90.20;;;;;;5115464;28;20185;-88
2023/09/16 02:59:28;;;;;;;11.53;9.70;;;12.90;90.30;;;;;;5115284;28;20205;-88
2023/09/16 03:01:53;;;;;;;10.10;9.17;;;12.90;90.30;;;;;;5114161;28;20170;-88
2023/09/16 03:04:19;;;;;;;10.30;9.40;;;12.90;90.40;;;;;;5115403;28;20190;-88
2023/09/16 03:06:44;;;;;;;11.10;10.00;;;12.80;90.40;;;;;;5114072;28;20174;-88
2023/09/16 03:09:10;;;;;;;10.67;9.67;;;12.80;90.40;;;;;;5115340;28;20671;-88
2023/09/16 03:11:37;;;;;;;9.70;8.80;;;12.70;90.40;;;;;;5115216;28;20174;-89
2023/09/16 03:14:02;;;;;;;10.80;9.53;;;12.60;90.40;;;;;;5115135;28;20216;-90
2023/09/16 03:16:28;;;;;;;10.83;9.83;;;12.60;90.50;;;;;;5113938;28;20215;-89
2023/09/16 03:18:54;;;;;;;12.30;10.37;;;12.60;90.70;;;;;;5114207;28;20200;-88
2023/09/16 03:21:23;;;;;;;11.30;10.20;;;12.50;90.80;;;;;;5115171;28;20197;-88
2023/09/16 03:23:48;;;;;;;11.70;10.10;;;12.50;90.90;;;;;;5115150;28;20735;-88
2023/09/16 03:26:15;;;;;;;11.00;10.10;;;12.50;91.00;;;;;;5113862;28;20257;-88
2023/09/16 03:28:47;;;;;;;11.10;10.00;;;12.50;91.10;;;;;;5113775;28;20201;-88
2023/09/16 03:31:14;;;;;;;14.33;10.03;;;12.50;91.10;;;;;;5114966;28;20636;-88
2023/09/16 03:33:40;;;;;;;11.20;10.07;;;12.50;91.20;;;;;;5114733;28;20265;-88
2023/09/16 03:36:06;;;;;;;10.50;9.60;;;12.50;91.20;;;;;;5115009;28;20608;-88
2023/09/16 03:38:34;;;;;;;12.30;9.73;;;12.50;91.20;;;;;;5113359;28;20189;-88
2023/09/16 03:41:00;;;;;;;13.30;9.83;;;12.50;91.30;;;;;;5114625;28;20174;-88
2023/09/16 03:43:27;;;;;;;11.87;8.80;;;12.50;91.30;;;;;;5114267;28;20190;-88
2023/09/16 03:45:53;;;;;;;9.97;9.10;;;12.40;91.20;;;;;;5113342;28;20206;-88
2023/09/16 03:48:18;;;;;;;12.90;8.40;;;12.40;91.30;;;;;;5114440;28;20188;-89
2023/09/16 03:50:44;;;;;;;14.17;8.80;;;12.50;91.30;;;;;;5114399;28;20169;-88
2023/09/16 03:53:10;;;;;;;9.70;8.80;;;12.50;91.40;;;;;;5114288;28;20177;-88
2023/09/16 03:55:36;;;;;;;12.87;10.03;;;12.50;91.40;;;;;;5113023;28;20190;-88
2023/09/16 03:58:02;;;;;;;9.83;8.93;;;12.50;91.30;;;;;;5114381;28;20251;-88
2023/09/16 04:00:28;;;;;;;14.53;9.90;;;12.50;91.30;;;;;;5114216;28;20202;-88
2023/09/16 04:02:54;;;;;;;10.97;9.40;;;12.50;91.30;;;;;;5114233;28;20641;-88
2023/09/16 04:05:19;;;;;;;10.37;9.27;;;12.60;91.40;;;;;;5112918;28;20194;-89
2023/09/16 04:07:46;;;;;;;13.20;8.63;;;12.60;91.50;;;;;;5112926;28;20261;-89
2023/09/16 04:10:11;;;;;;;10.10;9.20;;;12.60;91.40;;;;;;5112795;28;20174;-88
2023/09/16 04:12:37;;;;;;;14.40;9.90;;;12.60;91.40;;;;;;5112994;28;20188;-88
2023/09/16 04:15:03;;;;;;;11.13;9.37;;;12.70;91.40;;;;;;5114062;28;20198;-88
2023/09/16 04:17:29;;;;;;;11.87;10.07;;;12.70;91.30;;;;;;5112662;28;20186;-88
2023/09/16 04:19:54;;;;;;;10.70;9.63;;;12.70;91.30;;;;;;5113915;28;20284;-88
2023/09/16 04:22:20;;;;;;;9.90;9.00;;;12.70;91.40;;;;;;5114217;28;20193;-88
2023/09/16 04:24:46;;;;;;;10.50;9.40;;;12.70;91.30;;;;;;5113836;28;20572;-88
2023/09/16 04:27:12;;;;;;;11.20;9.87;;;12.60;91.30;;;;;;5112607;28;20173;-88
2023/09/16 04:29:37;;;;;;;9.87;8.27;;;12.70;91.40;;;;;;5112659;28;20710;-89
2023/09/16 04:32:03;;;;;;;10.00;7.87;;;12.70;91.40;;;;;;5113978;28;20714;-88
2023/09/16 04:34:29;;;;;;;8.87;7.97;;;12.70;91.40;;;;;;5113498;28;20198;-88
2023/09/16 04:36:55;;;;;;;11.43;8.03;;;12.70;91.40;;;;;;5112573;28;20201;-88
2023/09/16 04:39:23;;;;;;;11.13;9.93;;;12.70;91.30;;;;;;5113254;28;20288;-88
2023/09/16 04:41:53;;;;;;;10.90;9.90;;;12.60;91.30;;;;;;5113660;28;20180;-88
2023/09/16 04:44:22;;;;;;;11.67;10.57;;;12.70;91.30;;;;;;5113721;28;20657;-88
2023/09/16 04:46:47;;;;;;;12.07;10.87;;;12.70;91.20;;;;;;5112597;28;20178;-88
2023/09/16 04:49:13;;;;;;;12.30;11.03;;;12.60;91.10;;;;;;5113710;28;20554;-88
2023/09/16 04:51:39;;;;;;;11.73;10.83;;;12.50;91.20;;;;;;5113804;28;20673;-88
2023/09/16 04:54:05;;;;;;;11.77;10.57;;;12.50;91.30;;;;;;5113504;28;20200;-88
2023/09/16 04:56:30;;;;;;;12.70;11.40;;;12.50;91.30;;;;;;5117058;28;20186;-88
2023/09/16 04:58:56;;;;;;;12.00;10.97;;;12.50;91.30;;;;;;5116578;28;20208;-87
2023/09/16 05:01:22;;;;;;;13.57;10.23;;;12.40;91.40;;;;;;5117783;28;20166;-88
2023/09/16 05:03:47;;;;;;;12.50;9.53;;;12.40;91.50;;;;;;5116476;28;20186;-89
2023/09/16 05:06:13;;;;;;;10.63;9.57;;;12.40;91.50;;;;;;5116403;28;20269;-88
2023/09/16 05:08:38;;;;;;;10.60;9.60;;;12.40;91.40;;;;;;5116311;28;20173;-88
2023/09/16 05:11:04;;;;;;;14.83;10.53;;;12.40;91.50;;;;;;5117564;28;20199;-88
2023/09/16 05:13:29;;;;;;;11.23;10.10;;;12.50;91.60;;;;;;5117414;28;20212;-88
2023/09/16 05:15:55;;;;;;;11.80;10.70;;;12.50;91.40;;;;;;5117474;28;20670;-88
2023/09/16 05:18:21;;;;;;;14.30;11.07;;;12.40;91.40;;;;;;5117436;28;20177;-88
2023/09/16 05:20:49;;;;;;;12.40;11.10;;;12.50;91.40;;;;;;5117406;28;20189;-88
2023/09/16 05:23:16;;;;;;;12.43;11.43;;;12.40;91.40;;;;;;5116030;28;20177;-88
2023/09/16 05:25:49;;;;;;;13.33;11.90;;;12.40;91.50;;;;;;5117240;28;20166;-88
2023/09/16 05:28:15;;;;;;;12.93;11.53;;;12.40;91.50;;;;;;5117257;28;20241;-88
2023/09/16 05:30:44;;;;;;;18.07;16.17;;;12.40;91.60;;;;;;5115950;28;20264;-88
2023/09/16 05:33:10;;;;;;;17.60;16.30;;;12.50;91.70;;;;;;5117092;28;20174;-88
2023/09/16 05:35:37;;;;;;;17.87;16.20;;;12.50;91.80;;;;;;5117089;27;20170;-88
2023/09/16 05:38:03;;;;;;;17.23;15.60;;;12.50;91.80;;;;;;5115703;28;20174;-88
2023/09/16 05:40:29;;;;;;;18.37;16.67;;;12.50;91.90;;;;;;5116869;28;20251;-88
2023/09/16 05:42:55;;;;;;;16.77;15.57;;;12.50;92.00;;;;;;5116930;28;20618;-88
2023/09/16 05:45:20;;;;;;;17.07;15.67;;;12.60;92.10;;;;;;5116823;28;20182;-88
2023/09/16 05:47:48;;;;;;;17.03;15.33;;;12.70;92.30;;;;;;5116788;28;20193;-88
2023/09/16 05:50:14;;;;;;;17.13;15.53;;;12.80;92.40;;;;;;5115644;28;20174;-88
2023/09/16 05:52:39;;;;;;;18.13;16.40;;;12.80;92.60;;;;;;5115507;28;20246;-88
2023/09/16 05:55:05;;;;;;;18.77;17.17;;;12.90;92.70;;;;;;5116553;28;20208;-88
2023/09/16 05:57:31;;;;;;;17.37;15.87;;;13.00;92.80;;;;;;5115468;28;20185;-88
2023/09/16 05:59:56;;;;;;;17.70;13.63;;;13.10;92.90;;;;;;5116782;28;20201;-88
2023/09/16 06:02:22;;;;;;;18.17;12.97;;;13.20;93.00;;;;;;5116542;28;20170;-88
2023/09/16 06:04:49;;;;;;;17.90;16.30;;;13.20;93.00;;;;;;5116442;28;20206;-88
2023/09/16 06:07:15;;;;;;;18.63;17.00;;;13.30;93.10;;;;;;5116630;28;20513;-88
2023/09/16 06:09:41;;;;;;;18.47;16.73;;;13.30;93.10;;;;;;5116475;28;20555;-88
2023/09/16 06:12:07;;;;;;;16.13;14.63;;;13.40;93.20;;;;;;5116683;28;20174;-88
2023/09/16 06:14:33;;;;;;;14.80;13.50;;;13.50;93.20;;;;;;5115080;28;20197;-88
2023/09/16 06:16:59;;;;;;;19.60;17.90;;;13.60;93.30;;;;;;5116279;28;20199;-88
2023/09/16 06:19:26;;;;;;;19.00;17.43;;;13.70;93.30;;;;;;5114935;28;20201;-89
2023/09/16 06:21:52;;;;;;;15.90;13.90;;;13.80;93.30;;;;;;5116515;27;20215;-89
2023/09/16 06:24:18;;;;;;;15.93;14.43;;;13.80;93.30;;;;;;5116145;28;20611;-89
2023/09/16 06:26:43;;;;;;;15.93;13.93;;;13.90;93.40;;;;;;5115107;28;20227;-88
2023/09/16 06:29:09;;;;;;;17.43;15.87;;;14.00;93.40;;;;;;5116351;28;20178;-88
2023/09/16 06:31:34;;;;;;;17.13;15.50;;;14.00;93.40;;;;;;5114840;28;20174;-89
2023/09/16 06:34:00;;;;;;;16.30;14.67;;;14.20;93.50;;;;;;5114654;28;20194;-88
2023/09/16 06:36:26;;;;;;;16.93;15.07;;;14.20;93.40;;;;;;5114760;28;20205;-88
2023/09/16 06:38:51;;;;;;;19.37;17.77;;;14.30;93.50;;;;;;5115186;28;20182;-88
2023/09/16 06:41:17;;;;;;;20.17;18.57;;;14.40;93.40;;;;;;5115933;28;20170;-88
2023/09/16 06:43:43;;;;;;;19.70;17.90;;;14.50;93.50;;;;;;5114638;28;20607;-88
2023/09/16 06:46:08;;;;;;;16.77;15.17;;;14.60;93.40;;;;;;5114640;28;20231;-88
2023/09/16 06:48:34;;;;;;;17.30;15.35;;;14.70;93.40;;;;;;5115774;27;20170;-88
2023/09/16 06:50:59;;;;;;;16.13;14.57;;;14.80;93.30;;;;;;5114587;28;20206;-90
2023/09/16 06:53:25;;;;;;;16.87;15.30;;;14.80;93.20;;;;;;5114277;28;20201;-88
2023/09/16 06:55:50;;;;;;;16.38;13.80;;;14.90;93.20;;;;;;5114303;28;20194;-88
2023/09/16 06:58:20;;;;;;;14.73;13.23;;;14.90;93.00;;;;;;5114789;28;20552;-87
2023/09/16 07:00:46;;;;;;;15.35;13.75;;;15.00;93.00;;;;;;5115540;28;20190;-88
2023/09/16 07:03:12;;;;;;;15.05;13.63;;;15.10;92.90;;;;;;5115556;27;20166;-88
2023/09/16 07:05:37;;;;;;;16.25;13.77;;;15.20;92.70;;;;;;5115621;27;20689;-88
2023/09/16 07:08:03;;;;;;;14.05;12.73;;;15.20;92.50;;;;;;5115224;28;20174;-88
2023/09/16 07:10:29;;;;;;;15.02;13.48;;;15.20;92.30;;;;;;5115246;28;20184;-88
2023/09/16 07:12:54;;;;;;;15.45;13.70;;;15.30;92.10;;;;;;5115140;28;20203;-88
2023/09/16 07:15:20;;;;;;;16.58;12.55;;;15.40;91.80;;;;;;5115069;28;20262;-88
2023/09/16 07:17:46;;;;;;;13.73;12.32;;;15.40;91.50;;;;;;5114378;28;20167;-88
2023/09/16 07:20:11;;;;;;;13.52;12.15;;;15.50;91.40;;;;;;5113813;28;20201;-87
2023/09/16 07:22:38;;;;;;;13.98;12.20;;;15.60;91.00;;;;;;5115046;28;20170;-88
2023/09/16 07:25:07;;;;;;;14.60;11.95;;;15.70;90.60;;;;;;5115825;28;20189;-90
2023/09/16 07:27:33;;;;;;;13.23;11.05;;;15.70;90.30;;;;;;5114824;28;20163;-89
2023/09/16 07:29:58;;;;;;;14.45;12.52;;;15.80;89.80;;;;;;5114754;28;20169;-89
2023/09/16 07:32:24;;;;;;;13.10;11.80;;;15.90;89.40;;;;;;5115140;28;20666;-90
2023/09/16 07:34:49;;;;;;;13.43;12.32;;;16.00;89.30;;;;;;5114582;28;20200;-90
2023/09/16 07:37:15;;;;;;;12.82;11.70;;;16.10;88.90;;;;;;5114681;28;20182;-90
2023/09/16 07:39:41;;;;;;;13.82;12.43;;;16.20;88.50;;;;;;5113312;28;20228;-91
2023/09/16 07:42:06;;;;;;;14.93;13.38;;;16.30;88.30;;;;;;5113359;28;20197;-90
2023/09/16 07:44:32;;;;;;;13.90;12.60;;;16.30;88.10;;;;;;5113309;28;20740;-90
2023/09/16 07:46:57;;;;;;;15.02;13.57;;;16.20;87.90;;;;;;5114076;28;20170;-89
2023/09/16 07:49:23;;;;;;;14.82;13.00;;;16.30;88.00;;;;;;5113472;28;20181;-91
2023/09/16 07:51:49;;;;;;;14.82;13.45;;;16.40;87.90;;;;;;5114737;28;20182;-90
2023/09/16 07:54:15;;;;;;;13.98;12.68;;;16.40;87.60;;;;;;5114618;28;20274;-90
2023/09/16 07:56:41;;;;;;;13.68;12.68;;;16.50;87.40;;;;;;5113138;28;20611;-90
2023/09/16 07:59:06;;;;;;;14.98;13.38;;;16.50;87.20;;;;;;5114616;28;20200;-91
2023/09/16 08:01:32;;;;;;;14.38;12.85;;;16.60;87.20;;;;;;5114281;28;20184;-90
2023/09/16 08:03:57;;;;;;;13.15;11.93;;;16.70;87.20;;;;;;5113106;28;20190;-90
2023/09/16 08:06:23;;;;;;;14.65;12.95;;;16.70;87.00;;;;;;5114311;28;20173;-89
2023/09/16 08:08:49;;;;;;;14.32;12.93;;;16.70;86.80;;;;;;5121777;28;20166;-88
2023/09/16 08:11:15;;;;;;;14.70;13.18;;;16.70;86.50;;;;;;5139275;28;20214;-88
2023/09/16 08:13:41;;;;;;;14.02;12.48;;;16.70;86.50;;;;;;5138975;28;20189;-87
2023/09/16 08:16:07;;;;;;;13.23;12.13;;;16.70;86.50;;;;;;5139670;28;20146;-87
2023/09/16 08:18:32;;;;;;;14.10;13.00;;;16.80;86.20;;;;;;5114506;28;20181;-91
2023/09/16 08:21:00;;;;;;;13.73;12.63;;;16.80;86.30;;;;;;5114117;28;20197;-90
2023/09/16 08:23:25;;;;;;;13.88;12.68;;;16.90;86.30;;;;;;5112628;28;20241;-91
2023/09/16 08:25:51;;;;;;;14.18;12.82;;;16.90;86.20;;;;;;5112701;28;20261;-90
2023/09/16 08:28:16;;;;;;;13.52;12.45;;;17.00;86.30;;;;;;5112794;28;20214;-90
2023/09/16 08:30:42;;;;;;;13.63;12.52;;;17.00;86.30;;;;;;5117452;28;20182;-88
2023/09/16 08:33:09;;;;;;;14.38;13.18;;;17.10;86.30;;;;;;5112670;28;20317;-89
2023/09/16 08:35:34;;;;;;;13.48;12.25;;;17.20;86.40;;;;;;5113961;28;20158;-88
2023/09/16 08:38:01;;;;;;;13.52;12.32;;;17.20;86.10;;;;;;5114278;28;20169;-88
2023/09/16 08:40:29;;;;;;;13.02;11.93;;;17.20;86.10;;;;;;5113258;28;20205;-88
2023/09/16 08:43:02;;;;;;;13.23;12.13;;;17.20;86.10;;;;;;5113909;28;20166;-88
2023/09/16 08:45:31;;;;;;;13.20;12.13;;;17.30;85.90;;;;;;5114003;28;20222;-88
2023/09/16 08:48:02;;;;;;;12.10;11.10;;;17.40;85.80;;;;;;5114066;28;20166;-88
2023/09/16 08:50:31;;;;;;;17.10;15.70;;;17.40;85.50;;;;;;5113095;28;20190;-88
2023/09/16 08:53:02;;;;;;;19.60;17.85;;;17.50;85.30;;;;;;5117684;28;20174;-91
2023/09/16 08:55:29;;;;;;;21.42;19.25;;;17.50;85.20;;;;;;5113597;28;20269;-90
2023/09/16 08:58:00;;;;;;;18.48;16.67;;;17.60;85.60;;;;;;5112443;28;20205;-90
2023/09/16 09:00:26;;;;;;;15.23;11.73;;;17.60;85.00;;;;;;5114036;28;20735;-90
2023/09/16 09:02:52;;;;;;;13.90;12.55;;;17.70;85.10;;;;;;5112349;28;20209;-90
2023/09/16 09:05:18;;;;;;;19.10;17.50;;;17.70;84.50;;;;;;5113576;28;20190;-91
2023/09/16 09:07:44;;;;;;;20.33;18.75;;;17.80;84.10;;;;;;5113453;28;20170;-92
2023/09/16 09:10:13;;;;;;;14.85;13.32;;;17.80;83.80;;;;;;5112244;28;20178;-91
2023/09/16 09:12:40;;;;;;;13.27;12.18;;;17.90;83.70;;;;;;5113422;28;20223;-90
2023/09/16 09:15:10;;;;;;;12.30;11.20;;;18.00;83.70;;;;;;5112355;28;20562;-91
2023/09/16 09:17:39;;;;;;;17.90;16.55;;;18.00;83.40;;;;;;5112458;28;20653;-89
2023/09/16 09:20:07;;;;;;;18.55;17.05;;;18.10;82.90;;;;;;5112165;28;20205;-90
2023/09/16 09:22:37;;;;;;;11.80;10.90;;;18.10;83.00;;;;;;5113313;28;20173;-89
2023/09/16 09:25:03;;;;;;;11.93;10.93;;;18.20;82.80;;;;;;5113252;28;20339;-89
2023/09/16 09:27:28;;;;;;;18.38;16.95;;;18.30;82.70;;;;;;5113305;28;20664;-90
2023/09/16 09:29:54;;;;;;;17.15;15.68;;;18.30;81.80;;;;;;5113182;28;20261;-90
2023/09/16 09:32:21;;;;;;;19.92;18.35;;;18.40;81.40;;;;;;5113545;28;20223;-91
2023/09/16 09:34:47;;;;;;;14.18;11.82;;;18.50;81.20;;;;;;5113366;28;20206;-89
2023/09/16 09:37:19;;;;;;;11.82;10.68;;;18.50;80.90;;;;;;5113533;28;20660;-89
2023/09/16 09:39:45;;;;;;;12.02;11.10;;;18.50;80.50;;;;;;5111911;28;20202;-89
2023/09/16 09:42:20;;;;;;;12.40;11.50;;;18.60;80.80;;;;;;5114588;28;20550;-89
2023/09/16 09:44:46;;;;;;;12.55;11.50;;;18.70;80.70;;;;;;5115608;28;20280;-89
2023/09/16 09:47:15;;;;;;;12.45;11.45;;;18.70;80.80;;;;;;5116923;28;20225;-89
2023/09/16 09:49:41;;;;;;;12.70;11.40;;;18.80;80.80;;;;;;5115539;28;20182;-89
2023/09/16 09:52:08;;;;;;;12.77;11.70;;;18.80;80.00;;;;;;5116652;28;20219;-89
2023/09/16 09:54:34;;;;;;;12.55;11.45;;;18.80;80.20;;;;;;5115409;28;20711;-89
2023/09/16 09:57:04;;;;;;;15.48;11.18;;;18.90;80.40;;;;;;5115316;28;20194;-89
2023/09/16 09:59:29;;;;;;;12.77;11.48;;;19.00;79.80;;;;;;5115303;28;20244;-90
2023/09/16 10:01:55;;;;;;;12.65;11.55;;;19.00;79.70;;;;;;5115390;28;20177;-90
2023/09/16 10:04:21;;;;;;;12.20;11.30;;;19.00;79.90;;;;;;5115203;28;20198;-89
2023/09/16 10:06:47;;;;;;;13.18;12.10;;;19.10;79.90;;;;;;5115290;28;20178;-89
2023/09/16 10:09:12;;;;;;;12.73;11.73;;;19.10;79.50;;;;;;5115178;28;20724;-89
2023/09/16 10:11:38;;;;;;;12.70;11.70;;;19.20;79.20;;;;;;5116730;28;20184;-89
2023/09/16 10:14:04;;;;;;;14.65;13.32;;;19.20;79.50;;;;;;5116327;28;20181;-89
2023/09/16 10:16:30;;;;;;;12.93;11.80;;;19.30;78.90;;;;;;5116537;28;20223;-90
2023/09/16 10:18:57;;;;;;;13.25;12.25;;;19.40;79.00;;;;;;5115291;28;20645;-87
2023/09/16 10:21:23;;;;;;;13.20;11.80;;;19.40;78.80;;;;;;5116214;28;20170;-90
2023/09/16 10:23:50;;;;;;;13.50;12.50;;;19.50;78.90;;;;;;5117000;28;20684;-92
2023/09/16 10:26:16;;;;;;;13.23;12.02;;;19.60;77.60;;;;;;5116106;28;20174;-92
2023/09/16 10:28:46;;;;;;;13.20;12.20;;;19.70;77.70;;;;;;5117190;27;20178;-91
2023/09/16 10:31:12;;;;;;;12.85;11.75;;;19.70;77.40;;;;;;5115950;28;20225;-92
2023/09/16 10:33:40;;;;;;;12.35;11.35;;;19.80;77.30;;;;;;5116120;28;20691;-92
2023/09/16 10:36:07;;;;;;;12.38;11.52;;;19.90;76.90;;;;;;5115691;28;20181;-91
2023/09/16 10:38:36;;;;;;;13.05;11.88;;;19.90;76.90;;;;;;5115595;28;20170;-92
2023/09/16 10:41:04;;;;;;;14.00;12.40;;;20.00;77.30;;;;;;5117147;28;20231;-92
2023/09/16 10:43:31;;;;;;;15.05;13.45;;;20.10;77.10;;;;;;5115677;28;20243;-91
2023/09/16 10:45:57;;;;;;;14.27;13.02;;;20.10;76.80;;;;;;5116085;28;20575;-91
2023/09/16 10:48:23;;;;;;;13.60;12.60;;;20.30;76.30;;;;;;5116069;28;20181;-92
2023/09/16 10:50:52;;;;;;;14.10;13.00;;;20.40;76.30;;;;;;5116647;28;20178;-91
2023/09/16 10:53:25;;;;;;;14.35;13.05;;;20.40;76.30;;;;;;5115738;28;20673;-91
2023/09/16 10:56:24;;;;;;;14.48;13.30;;;20.50;75.50;;;;;;5115631;28;20215;-91
2023/09/16 10:59:01;;;;;;;13.77;12.57;;;20.60;75.90;;;;;;5115412;28;20166;-92
2023/09/16 11:01:59;;;;;;;13.85;12.75;;;20.80;76.90;;;;;;5115876;28;20215;-91
2023/09/16 11:04:25;;;;;;;14.20;12.80;;;20.80;76.00;;;;;;5108032;28;20202;-92
2023/09/16 11:06:50;;;;;;;14.15;12.98;;;20.90;75.20;;;;;;5115947;28;20281;-92
2023/09/16 11:09:20;;;;;;;13.82;12.68;;;21.10;75.60;;;;;;5116965;28;20701;-91
2023/09/16 11:11:47;;;;;;;14.73;13.48;;;21.20;75.90;;;;;;5116157;28;20174;-91
2023/09/16 11:14:15;;;;;;;14.60;13.45;;;21.30;75.30;;;;;;5116120;28;20590;-91
2023/09/16 11:16:51;;;;;;;14.75;13.43;;;21.50;74.80;;;;;;5115425;28;20178;-92
2023/09/16 11:19:21;;;;;;;15.35;14.10;;;21.60;74.00;;;;;;5115481;28;20197;-92
2023/09/16 11:21:47;;;;;;;14.82;13.73;;;21.70;74.50;;;;;;5115287;28;20166;-91
2023/09/16 11:24:13;;;;;;;15.95;14.50;;;22.00;74.90;;;;;;5116185;28;20197;-92
2023/09/16 11:26:40;;;;;;;15.25;13.82;;;22.10;72.80;;;;;;5115787;28;20268;-92
2023/09/16 11:29:19;;;;;;;16.85;15.45;;;22.20;71.80;;;;;;5115923;28;20192;-91
2023/09/16 11:31:45;;;;;;;16.15;14.95;;;22.30;71.10;;;;;;5115550;28;20629;-92
2023/09/16 11:34:12;;;;;;;16.67;15.43;;;22.40;70.90;;;;;;5115418;28;20202;-92
2023/09/16 11:36:43;;;;;;;18.60;17.00;;;22.60;70.30;;;;;;5115972;28;20196;-92
2023/09/16 11:39:11;;;;;;;16.92;15.30;;;22.70;69.70;;;;;;5115507;28;20170;-92
2023/09/16 11:41:37;;;;;;;17.52;16.20;;;22.80;69.70;;;;;;5115350;28;20172;-92
2023/09/16 11:44:04;;;;;;;18.90;17.30;;;23.00;68.10;;;;;;5115179;28;20636;-92
2023/09/16 11:46:31;;;;;;;18.08;16.55;;;23.10;68.70;;;;;;5116115;28;20170;-92
2023/09/16 11:49:02;;;;;;;17.00;15.68;;;23.40;68.60;;;;;;5117719;28;20189;-92
2023/09/16 11:51:30;;;;;;;17.33;15.95;;;23.60;66.30;;;;;;5117291;28;20207;-91
2023/09/16 11:53:56;;;;;;;16.95;15.75;;;23.80;66.60;;;;;;5116592;28;20185;-92
2023/09/16 11:56:27;;;;;;;19.52;17.95;;;24.10;65.80;;;;;;5116173;28;20273;-90
2023/09/16 11:58:54;;;;;;;20.27;18.88;;;24.20;64.20;;;;;;5118120;28;20244;-93
2023/09/16 12:01:31;;;;;;;21.67;19.90;;;24.30;64.00;;;;;;5114346;28;20227;-91
2023/09/16 12:03:57;;;;;;;21.20;19.75;;;24.30;63.90;;;;;;5112789;28;20193;-90
2023/09/16 12:06:25;;;;;;;20.90;19.40;;;24.40;63.00;;;;;;5114394;27;20170;-90
2023/09/16 12:08:56;;;;;;;20.20;18.90;;;24.50;63.00;;;;;;5112945;28;20178;-92
2023/09/16 12:11:23;;;;;;;20.33;19.02;;;24.80;63.50;;;;;;5113597;28;20529;-92
2023/09/16 12:13:49;;;;;;;21.15;19.50;;;25.00;60.90;;;;;;5113979;28;20285;-91
2023/09/16 12:16:15;;;;;;;25.65;23.88;;;25.00;57.50;;;;;;5113227;28;20212;-91
2023/09/16 12:18:42;;;;;;;25.98;24.30;;;25.00;56.80;;;;;;5112899;28;20178;-91
2023/09/16 12:21:08;;;;;;;25.98;24.13;;;24.90;56.80;;;;;;5112734;28;20223;-90
2023/09/16 12:23:34;;;;;;;19.58;18.17;;;24.70;57.90;;;;;;5114338;28;20193;-91
2023/09/16 12:25:59;;;;;;;20.05;18.55;;;24.80;59.90;;;;;;5113346;28;20201;-90
2023/09/16 12:28:25;;;;;;;27.98;25.88;;;25.00;58.80;;;;;;5112576;28;20519;-89